sensor_id;sensor_type;location;lat;lon;timestamp;P1;durP1;ratioP1;P2;durP2;ratioP2
19347;SDS011;9810;52.480;9.806;2022-12-20T00:00:46;15.07;;;8.23;;
19347;SDS011;9810;52.480;9.806;2022-12-20T00:03:15;18.03;;;9.27;;
19347;SDS011;9810;52.480;9.806;2022-12-20T00:05:44;15.77;;;9.20;;
19347;SDS011;9810;52.480;9.806;2022-12-20T00:08:11;18.17;;;9.03;;
19347;SDS011;9810;52.480;9.806;2022-12-20T00:10:39;18.90;;;10.30;;
19347;SDS011;9810;52.480;9.806;2022-12-20T00:13:08;19.17;;;9.93;;
19347;SDS011;9810;52.480;9.806;2022-12-20T00:15:36;19.10;;;11.23;;
19347;SDS011;9810;52.480;9.806;2022-12-20T00:18:05;17.80;;;9.97;;
19347;SDS011;9810;52.480;9.806;2022-12-20T00:20:34;17.73;;;9.13;;
19347;SDS011;9810;52.480;9.806;2022-12-20T00:23:02;17.67;;;10.23;;
19347;SDS011;9810;52.480;9.806;2022-12-20T00:25:29;17.23;;;9.93;;
19347;SDS011;9810;52.480;9.806;2022-12-20T00:27:57;17.77;;;9.83;;
19347;SDS011;9810;52.480;9.806;2022-12-20T00:30:25;16.47;;;9.83;;
19347;SDS011;9810;52.480;9.806;2022-12-20T00:32:52;16.97;;;9.77;;
19347;SDS011;9810;52.480;9.806;2022-12-20T00:35:20;20.90;;;10.17;;
19347;SDS011;9810;52.480;9.806;2022-12-20T00:37:49;16.67;;;9.73;;
19347;SDS011;9810;52.480;9.806;2022-12-20T00:40:16;16.90;;;9.33;;
19347;SDS011;9810;52.480;9.806;2022-12-20T00:42:43;18.07;;;9.93;;
19347;SDS011;9810;52.480;9.806;2022-12-20T00:45:11;14.00;;;7.97;;
19347;SDS011;9810;52.480;9.806;2022-12-20T00:47:38;19.40;;;9.13;;
19347;SDS011;9810;52.480;9.806;2022-12-20T00:50:06;19.13;;;10.20;;
19347;SDS011;9810;52.480;9.806;2022-12-20T00:52:33;17.33;;;9.67;;
19347;SDS011;9810;52.480;9.806;2022-12-20T00:55:02;15.83;;;9.47;;
19347;SDS011;9810;52.480;9.806;2022-12-20T00:57:30;19.23;;;9.93;;
19347;SDS011;9810;52.480;9.806;2022-12-20T00:59:58;19.57;;;10.07;;
19347;SDS011;9810;52.480;9.806;2022-12-20T01:02:25;19.07;;;9.63;;
19347;SDS011;9810;52.480;9.806;2022-12-20T01:04:52;18.27;;;9.70;;
19347;SDS011;9810;52.480;9.806;2022-12-20T01:07:20;17.07;;;9.40;;
19347;SDS011;9810;52.480;9.806;2022-12-20T01:09:48;17.73;;;9.73;;
19347;SDS011;9810;52.480;9.806;2022-12-20T01:12:17;18.63;;;10.97;;
19347;SDS011;9810;52.480;9.806;2022-12-20T01:14:45;19.33;;;10.97;;
19347;SDS011;9810;52.480;9.806;2022-12-20T01:17:12;17.87;;;10.27;;
19347;SDS011;9810;52.480;9.806;2022-12-20T01:19:39;20.70;;;10.50;;
19347;SDS011;9810;52.480;9.806;2022-12-20T01:22:07;15.63;;;9.27;;
19347;SDS011;9810;52.480;9.806;2022-12-20T01:24:34;21.50;;;11.23;;
19347;SDS011;9810;52.480;9.806;2022-12-20T01:27:01;16.23;;;9.43;;
19347;SDS011;9810;52.480;9.806;2022-12-20T01:29:30;22.63;;;10.90;;
19347;SDS011;9810;52.480;9.806;2022-12-20T01:31:57;20.17;;;9.40;;
19347;SDS011;9810;52.480;9.806;2022-12-20T01:34:25;21.07;;;10.07;;
19347;SDS011;9810;52.480;9.806;2022-12-20T01:36:52;14.40;;;9.20;;
19347;SDS011;9810;52.480;9.806;2022-12-20T01:39:19;21.80;;;10.47;;
19347;SDS011;9810;52.480;9.806;2022-12-20T01:41:47;23.50;;;10.33;;
19347;SDS011;9810;52.480;9.806;2022-12-20T01:47:20;16.37;;;11.40;;
19347;SDS011;9810;52.480;9.806;2022-12-20T01:49:50;15.33;;;9.40;;
19347;SDS011;9810;52.480;9.806;2022-12-20T01:52:22;22.00;;;9.80;;
19347;SDS011;9810;52.480;9.806;2022-12-20T01:54:54;21.30;;;10.80;;
19347;SDS011;9810;52.480;9.806;2022-12-20T01:57:28;18.87;;;10.27;;
19347;SDS011;9810;52.480;9.806;2022-12-20T02:00:00;22.60;;;9.93;;
19347;SDS011;9810;52.480;9.806;2022-12-20T02:02:30;18.70;;;9.93;;
19347;SDS011;9810;52.480;9.806;2022-12-20T02:04:58;16.53;;;9.47;;
19347;SDS011;9810;52.480;9.806;2022-12-20T02:07:26;17.77;;;9.57;;
19347;SDS011;9810;52.480;9.806;2022-12-20T02:09:57;20.60;;;10.70;;
19347;SDS011;9810;52.480;9.806;2022-12-20T02:12:28;16.17;;;9.33;;
19347;SDS011;9810;52.480;9.806;2022-12-20T02:15:03;20.03;;;10.33;;
19347;SDS011;9810;52.480;9.806;2022-12-20T02:17:44;14.67;;;9.07;;
19347;SDS011;9810;52.480;9.806;2022-12-20T02:20:41;16.03;;;9.17;;
19347;SDS011;9810;52.480;9.806;2022-12-20T02:23:29;16.33;;;9.50;;
19347;SDS011;9810;52.480;9.806;2022-12-20T02:26:14;15.23;;;9.17;;
19347;SDS011;9810;52.480;9.806;2022-12-20T02:29:06;16.27;;;9.03;;
19347;SDS011;9810;52.480;9.806;2022-12-20T02:31:46;22.33;;;10.63;;
19347;SDS011;9810;52.480;9.806;2022-12-20T02:34:20;13.73;;;8.53;;
19347;SDS011;9810;52.480;9.806;2022-12-20T02:36:50;21.23;;;10.40;;
19347;SDS011;9810;52.480;9.806;2022-12-20T02:39:18;15.40;;;9.33;;
19347;SDS011;9810;52.480;9.806;2022-12-20T02:41:47;19.13;;;10.40;;
19347;SDS011;9810;52.480;9.806;2022-12-20T02:44:19;13.97;;;8.60;;
19347;SDS011;9810;52.480;9.806;2022-12-20T02:47:09;15.87;;;8.83;;
19347;SDS011;9810;52.480;9.806;2022-12-20T02:49:40;15.07;;;8.67;;
19347;SDS011;9810;52.480;9.806;2022-12-20T02:52:11;13.60;;;8.37;;
19347;SDS011;9810;52.480;9.806;2022-12-20T02:54:40;19.43;;;9.57;;
19347;SDS011;9810;52.480;9.806;2022-12-20T02:57:10;20.77;;;9.87;;
19347;SDS011;9810;52.480;9.806;2022-12-20T02:59:42;16.23;;;9.80;;
19347;SDS011;9810;52.480;9.806;2022-12-20T03:02:16;15.13;;;8.97;;
19347;SDS011;9810;52.480;9.806;2022-12-20T03:04:44;17.87;;;9.43;;
19347;SDS011;9810;52.480;9.806;2022-12-20T03:07:13;13.53;;;9.03;;
19347;SDS011;9810;52.480;9.806;2022-12-20T03:09:41;19.07;;;8.80;;
19347;SDS011;9810;52.480;9.806;2022-12-20T03:12:10;17.43;;;9.30;;
19347;SDS011;9810;52.480;9.806;2022-12-20T03:14:40;16.73;;;8.73;;
19347;SDS011;9810;52.480;9.806;2022-12-20T03:17:07;14.90;;;9.13;;
19347;SDS011;9810;52.480;9.806;2022-12-20T03:19:37;15.03;;;8.80;;
19347;SDS011;9810;52.480;9.806;2022-12-20T03:22:04;14.03;;;9.37;;
19347;SDS011;9810;52.480;9.806;2022-12-20T03:24:32;18.17;;;9.33;;
19347;SDS011;9810;52.480;9.806;2022-12-20T03:26:58;11.40;;;7.27;;
19347;SDS011;9810;52.480;9.806;2022-12-20T03:29:26;14.47;;;7.27;;
19347;SDS011;9810;52.480;9.806;2022-12-20T03:31:53;13.60;;;6.67;;
19347;SDS011;9810;52.480;9.806;2022-12-20T03:34:21;10.97;;;6.53;;
19347;SDS011;9810;52.480;9.806;2022-12-20T03:36:50;15.67;;;7.23;;
19347;SDS011;9810;52.480;9.806;2022-12-20T03:39:17;10.83;;;6.57;;
19347;SDS011;9810;52.480;9.806;2022-12-20T03:41:44;16.20;;;7.70;;
19347;SDS011;9810;52.480;9.806;2022-12-20T03:44:11;14.47;;;8.10;;
19347;SDS011;9810;52.480;9.806;2022-12-20T03:46:39;15.63;;;8.97;;
19347;SDS011;9810;52.480;9.806;2022-12-20T03:49:06;11.10;;;7.60;;
19347;SDS011;9810;52.480;9.806;2022-12-20T03:51:33;17.67;;;9.07;;
19347;SDS011;9810;52.480;9.806;2022-12-20T03:54:02;13.57;;;8.27;;
19347;SDS011;9810;52.480;9.806;2022-12-20T03:56:30;14.13;;;7.70;;
19347;SDS011;9810;52.480;9.806;2022-12-20T03:58:57;19.57;;;8.40;;
19347;SDS011;9810;52.480;9.806;2022-12-20T04:01:26;14.33;;;8.17;;
19347;SDS011;9810;52.480;9.806;2022-12-20T04:03:54;11.57;;;7.33;;
19347;SDS011;9810;52.480;9.806;2022-12-20T04:06:22;12.17;;;6.80;;
19347;SDS011;9810;52.480;9.806;2022-12-20T04:08:50;8.47;;;5.20;;
19347;SDS011;9810;52.480;9.806;2022-12-20T04:11:19;12.43;;;7.20;;
19347;SDS011;9810;52.480;9.806;2022-12-20T04:13:47;10.67;;;6.50;;
19347;SDS011;9810;52.480;9.806;2022-12-20T04:16:16;17.83;;;7.40;;
19347;SDS011;9810;52.480;9.806;2022-12-20T04:18:44;15.43;;;7.50;;
19347;SDS011;9810;52.480;9.806;2022-12-20T04:21:11;13.47;;;7.70;;
19347;SDS011;9810;52.480;9.806;2022-12-20T04:23:40;12.03;;;7.20;;
19347;SDS011;9810;52.480;9.806;2022-12-20T04:26:08;14.07;;;8.17;;
19347;SDS011;9810;52.480;9.806;2022-12-20T04:28:39;10.47;;;6.73;;
19347;SDS011;9810;52.480;9.806;2022-12-20T04:31:06;17.03;;;8.80;;
19347;SDS011;9810;52.480;9.806;2022-12-20T04:33:33;15.17;;;7.67;;
19347;SDS011;9810;52.480;9.806;2022-12-20T04:36:01;19.77;;;9.10;;
19347;SDS011;9810;52.480;9.806;2022-12-20T04:38:28;15.53;;;7.80;;
19347;SDS011;9810;52.480;9.806;2022-12-20T04:40:56;15.47;;;7.90;;
19347;SDS011;9810;52.480;9.806;2022-12-20T04:43:24;11.37;;;6.77;;
19347;SDS011;9810;52.480;9.806;2022-12-20T04:45:53;12.50;;;6.80;;
19347;SDS011;9810;52.480;9.806;2022-12-20T04:48:22;16.63;;;8.23;;
19347;SDS011;9810;52.480;9.806;2022-12-20T04:50:51;12.73;;;7.23;;
19347;SDS011;9810;52.480;9.806;2022-12-20T04:53:19;15.27;;;8.13;;
19347;SDS011;9810;52.480;9.806;2022-12-20T04:56:04;15.57;;;8.27;;
19347;SDS011;9810;52.480;9.806;2022-12-20T04:58:32;18.23;;;8.23;;
19347;SDS011;9810;52.480;9.806;2022-12-20T05:01:01;17.20;;;8.60;;
19347;SDS011;9810;52.480;9.806;2022-12-20T05:03:29;16.03;;;8.50;;
19347;SDS011;9810;52.480;9.806;2022-12-20T05:05:56;14.20;;;8.47;;
19347;SDS011;9810;52.480;9.806;2022-12-20T05:08:23;16.40;;;8.80;;
19347;SDS011;9810;52.480;9.806;2022-12-20T05:10:51;14.93;;;8.40;;
19347;SDS011;9810;52.480;9.806;2022-12-20T05:13:18;16.87;;;8.67;;
19347;SDS011;9810;52.480;9.806;2022-12-20T05:15:49;16.07;;;8.30;;
19347;SDS011;9810;52.480;9.806;2022-12-20T05:18:19;14.27;;;8.50;;
19347;SDS011;9810;52.480;9.806;2022-12-20T05:20:46;14.90;;;8.60;;
19347;SDS011;9810;52.480;9.806;2022-12-20T05:23:34;16.33;;;8.77;;
19347;SDS011;9810;52.480;9.806;2022-12-20T05:26:20;12.63;;;7.80;;
19347;SDS011;9810;52.480;9.806;2022-12-20T05:28:49;15.63;;;7.60;;
19347;SDS011;9810;52.480;9.806;2022-12-20T05:31:16;14.93;;;8.40;;
19347;SDS011;9810;52.480;9.806;2022-12-20T05:33:45;17.03;;;9.03;;
19347;SDS011;9810;52.480;9.806;2022-12-20T05:36:12;15.37;;;8.70;;
19347;SDS011;9810;52.480;9.806;2022-12-20T05:38:39;16.10;;;8.77;;
19347;SDS011;9810;52.480;9.806;2022-12-20T05:41:07;16.27;;;8.80;;
19347;SDS011;9810;52.480;9.806;2022-12-20T05:43:34;17.37;;;9.03;;
19347;SDS011;9810;52.480;9.806;2022-12-20T05:46:01;16.63;;;9.57;;
19347;SDS011;9810;52.480;9.806;2022-12-20T05:48:29;14.30;;;8.97;;
19347;SDS011;9810;52.480;9.806;2022-12-20T05:50:58;15.37;;;8.80;;
19347;SDS011;9810;52.480;9.806;2022-12-20T05:53:25;15.13;;;8.33;;
19347;SDS011;9810;52.480;9.806;2022-12-20T05:55:53;17.10;;;10.03;;
19347;SDS011;9810;52.480;9.806;2022-12-20T05:58:20;13.97;;;8.77;;
19347;SDS011;9810;52.480;9.806;2022-12-20T06:00:48;13.00;;;8.37;;
19347;SDS011;9810;52.480;9.806;2022-12-20T06:03:15;16.67;;;9.13;;
19347;SDS011;9810;52.480;9.806;2022-12-20T06:05:42;14.47;;;8.57;;
19347;SDS011;9810;52.480;9.806;2022-12-20T06:08:12;14.80;;;8.27;;
19347;SDS011;9810;52.480;9.806;2022-12-20T06:10:40;14.67;;;8.23;;
19347;SDS011;9810;52.480;9.806;2022-12-20T06:13:08;14.83;;;8.33;;
19347;SDS011;9810;52.480;9.806;2022-12-20T06:15:36;16.83;;;9.27;;
19347;SDS011;9810;52.480;9.806;2022-12-20T06:18:03;16.20;;;9.47;;
19347;SDS011;9810;52.480;9.806;2022-12-20T06:20:31;16.77;;;9.57;;
19347;SDS011;9810;52.480;9.806;2022-12-20T06:23:00;12.87;;;8.30;;
19347;SDS011;9810;52.480;9.806;2022-12-20T06:25:29;14.23;;;8.23;;
19347;SDS011;9810;52.480;9.806;2022-12-20T06:27:57;12.17;;;8.00;;
19347;SDS011;9810;52.480;9.806;2022-12-20T06:30:24;17.90;;;9.33;;
19347;SDS011;9810;52.480;9.806;2022-12-20T06:32:52;12.87;;;8.47;;
19347;SDS011;9810;52.480;9.806;2022-12-20T06:35:19;16.47;;;6.57;;
19347;SDS011;9810;52.480;9.806;2022-12-20T06:37:46;17.00;;;8.13;;
19347;SDS011;9810;52.480;9.806;2022-12-20T06:40:13;22.90;;;9.77;;
19347;SDS011;9810;52.480;9.806;2022-12-20T06:42:42;19.80;;;5.57;;
19347;SDS011;9810;52.480;9.806;2022-12-20T06:45:10;10.17;;;5.67;;
19347;SDS011;9810;52.480;9.806;2022-12-20T06:47:37;14.87;;;9.03;;
19347;SDS011;9810;52.480;9.806;2022-12-20T06:50:05;14.60;;;8.27;;
19347;SDS011;9810;52.480;9.806;2022-12-20T06:52:33;12.30;;;8.23;;
19347;SDS011;9810;52.480;9.806;2022-12-20T06:55:00;14.37;;;8.23;;
19347;SDS011;9810;52.480;9.806;2022-12-20T06:57:28;14.07;;;8.63;;
19347;SDS011;9810;52.480;9.806;2022-12-20T06:59:57;15.00;;;8.63;;
19347;SDS011;9810;52.480;9.806;2022-12-20T07:02:24;15.23;;;8.93;;
19347;SDS011;9810;52.480;9.806;2022-12-20T07:04:51;13.37;;;8.37;;
19347;SDS011;9810;52.480;9.806;2022-12-20T07:07:19;15.00;;;8.17;;
19347;SDS011;9810;52.480;9.806;2022-12-20T07:09:46;16.23;;;8.87;;
19347;SDS011;9810;52.480;9.806;2022-12-20T07:12:13;13.33;;;7.93;;
19347;SDS011;9810;52.480;9.806;2022-12-20T07:14:41;11.67;;;8.10;;
19347;SDS011;9810;52.480;9.806;2022-12-20T07:17:10;16.30;;;8.77;;
19347;SDS011;9810;52.480;9.806;2022-12-20T07:19:37;16.57;;;8.77;;
19347;SDS011;9810;52.480;9.806;2022-12-20T07:22:05;16.33;;;10.53;;
19347;SDS011;9810;52.480;9.806;2022-12-20T07:24:32;13.47;;;8.43;;
19347;SDS011;9810;52.480;9.806;2022-12-20T07:27:00;13.57;;;8.27;;
19347;SDS011;9810;52.480;9.806;2022-12-20T07:29:27;15.20;;;8.83;;
19347;SDS011;9810;52.480;9.806;2022-12-20T07:31:55;17.97;;;8.60;;
19347;SDS011;9810;52.480;9.806;2022-12-20T07:34:24;13.50;;;8.80;;
19347;SDS011;9810;52.480;9.806;2022-12-20T07:36:51;15.53;;;8.00;;
19347;SDS011;9810;52.480;9.806;2022-12-20T07:39:18;16.37;;;8.23;;
19347;SDS011;9810;52.480;9.806;2022-12-20T07:41:46;12.30;;;7.97;;
19347;SDS011;9810;52.480;9.806;2022-12-20T07:44:13;12.80;;;7.93;;
19347;SDS011;9810;52.480;9.806;2022-12-20T07:46:40;15.03;;;8.03;;
19347;SDS011;9810;52.480;9.806;2022-12-20T07:49:07;12.97;;;7.13;;
19347;SDS011;9810;52.480;9.806;2022-12-20T07:51:37;15.53;;;8.00;;
19347;SDS011;9810;52.480;9.806;2022-12-20T07:54:08;13.33;;;8.07;;
19347;SDS011;9810;52.480;9.806;2022-12-20T07:56:39;12.03;;;7.23;;
19347;SDS011;9810;52.480;9.806;2022-12-20T07:59:11;15.17;;;8.87;;
19347;SDS011;9810;52.480;9.806;2022-12-20T08:01:41;15.53;;;7.50;;
19347;SDS011;9810;52.480;9.806;2022-12-20T08:04:10;13.63;;;7.93;;
19347;SDS011;9810;52.480;9.806;2022-12-20T08:06:42;14.43;;;7.50;;
19347;SDS011;9810;52.480;9.806;2022-12-20T08:09:10;13.50;;;7.47;;
19347;SDS011;9810;52.480;9.806;2022-12-20T08:11:40;10.53;;;7.23;;
19347;SDS011;9810;52.480;9.806;2022-12-20T08:14:12;13.30;;;7.60;;
19347;SDS011;9810;52.480;9.806;2022-12-20T08:16:40;10.07;;;6.43;;
19347;SDS011;9810;52.480;9.806;2022-12-20T08:19:07;12.70;;;7.67;;
19347;SDS011;9810;52.480;9.806;2022-12-20T08:21:35;14.40;;;7.57;;
19347;SDS011;9810;52.480;9.806;2022-12-20T08:24:04;11.27;;;7.23;;
19347;SDS011;9810;52.480;9.806;2022-12-20T08:26:35;15.40;;;7.40;;
19347;SDS011;9810;52.480;9.806;2022-12-20T08:29:03;14.33;;;7.80;;
19347;SDS011;9810;52.480;9.806;2022-12-20T08:31:30;12.33;;;7.67;;
19347;SDS011;9810;52.480;9.806;2022-12-20T08:33:58;11.13;;;7.13;;
19347;SDS011;9810;52.480;9.806;2022-12-20T08:36:25;16.87;;;8.00;;
19347;SDS011;9810;52.480;9.806;2022-12-20T08:38:52;10.80;;;7.37;;
19347;SDS011;9810;52.480;9.806;2022-12-20T08:41:22;16.30;;;8.20;;
19347;SDS011;9810;52.480;9.806;2022-12-20T08:43:49;13.73;;;7.47;;
19347;SDS011;9810;52.480;9.806;2022-12-20T08:46:16;14.60;;;7.53;;
19347;SDS011;9810;52.480;9.806;2022-12-20T08:48:44;12.93;;;7.60;;
19347;SDS011;9810;52.480;9.806;2022-12-20T08:51:11;10.20;;;6.23;;
19347;SDS011;9810;52.480;9.806;2022-12-20T08:53:38;13.53;;;8.43;;
19347;SDS011;9810;52.480;9.806;2022-12-20T08:56:06;12.57;;;6.37;;
19347;SDS011;9810;52.480;9.806;2022-12-20T08:58:37;11.33;;;6.87;;
19347;SDS011;9810;52.480;9.806;2022-12-20T09:01:06;10.97;;;6.83;;
19347;SDS011;9810;52.480;9.806;2022-12-20T09:03:35;13.37;;;7.10;;
19347;SDS011;9810;52.480;9.806;2022-12-20T09:06:03;12.60;;;6.23;;
19347;SDS011;9810;52.480;9.806;2022-12-20T09:08:32;9.87;;;6.43;;
19347;SDS011;9810;52.480;9.806;2022-12-20T09:11:02;10.03;;;5.17;;
19347;SDS011;9810;52.480;9.806;2022-12-20T09:13:30;9.27;;;5.43;;
19347;SDS011;9810;52.480;9.806;2022-12-20T09:16:00;11.37;;;5.80;;
19347;SDS011;9810;52.480;9.806;2022-12-20T09:18:28;14.73;;;5.37;;
19347;SDS011;9810;52.480;9.806;2022-12-20T09:20:58;13.10;;;6.33;;
19347;SDS011;9810;52.480;9.806;2022-12-20T09:23:26;10.53;;;4.57;;
19347;SDS011;9810;52.480;9.806;2022-12-20T09:25:53;11.50;;;5.90;;
19347;SDS011;9810;52.480;9.806;2022-12-20T09:28:20;10.43;;;5.87;;
19347;SDS011;9810;52.480;9.806;2022-12-20T09:30:48;10.77;;;5.27;;
19347;SDS011;9810;52.480;9.806;2022-12-20T09:33:17;9.53;;;6.50;;
19347;SDS011;9810;52.480;9.806;2022-12-20T09:35:44;9.80;;;5.10;;
19347;SDS011;9810;52.480;9.806;2022-12-20T09:38:12;8.60;;;5.30;;
19347;SDS011;9810;52.480;9.806;2022-12-20T09:40:43;9.10;;;5.23;;
19347;SDS011;9810;52.480;9.806;2022-12-20T09:43:12;11.70;;;5.83;;
19347;SDS011;9810;52.480;9.806;2022-12-20T09:45:41;11.13;;;5.87;;
19347;SDS011;9810;52.480;9.806;2022-12-20T09:48:12;11.20;;;5.60;;
19347;SDS011;9810;52.480;9.806;2022-12-20T09:50:46;7.00;;;4.93;;
19347;SDS011;9810;52.480;9.806;2022-12-20T09:53:27;13.17;;;5.63;;
19347;SDS011;9810;52.480;9.806;2022-12-20T09:56:04;6.63;;;4.77;;
19347;SDS011;9810;52.480;9.806;2022-12-20T09:58:47;8.03;;;4.80;;
19347;SDS011;9810;52.480;9.806;2022-12-20T10:01:23;10.73;;;5.03;;
19347;SDS011;9810;52.480;9.806;2022-12-20T10:03:55;7.77;;;5.10;;
19347;SDS011;9810;52.480;9.806;2022-12-20T10:06:27;18.57;;;5.13;;
19347;SDS011;9810;52.480;9.806;2022-12-20T10:09:03;10.07;;;5.17;;
19347;SDS011;9810;52.480;9.806;2022-12-20T10:11:47;8.03;;;4.97;;
19347;SDS011;9810;52.480;9.806;2022-12-20T10:14:29;10.07;;;5.57;;
19347;SDS011;9810;52.480;9.806;2022-12-20T10:17:14;7.10;;;4.67;;
19347;SDS011;9810;52.480;9.806;2022-12-20T10:19:56;9.00;;;5.30;;
19347;SDS011;9810;52.480;9.806;2022-12-20T10:22:34;7.90;;;5.20;;
19347;SDS011;9810;52.480;9.806;2022-12-20T10:25:12;10.07;;;5.20;;
19347;SDS011;9810;52.480;9.806;2022-12-20T10:27:44;6.90;;;5.20;;
19347;SDS011;9810;52.480;9.806;2022-12-20T10:30:13;8.53;;;4.30;;
19347;SDS011;9810;52.480;9.806;2022-12-20T10:32:43;7.60;;;4.60;;
19347;SDS011;9810;52.480;9.806;2022-12-20T10:35:21;6.60;;;4.27;;
19347;SDS011;9810;52.480;9.806;2022-12-20T10:37:58;7.20;;;4.40;;
19347;SDS011;9810;52.480;9.806;2022-12-20T10:40:29;11.27;;;4.83;;
19347;SDS011;9810;52.480;9.806;2022-12-20T10:42:58;9.57;;;4.73;;
19347;SDS011;9810;52.480;9.806;2022-12-20T10:45:28;8.20;;;4.47;;
19347;SDS011;9810;52.480;9.806;2022-12-20T10:48:00;7.40;;;4.30;;
19347;SDS011;9810;52.480;9.806;2022-12-20T10:50:31;6.60;;;4.30;;
19347;SDS011;9810;52.480;9.806;2022-12-20T10:56:03;6.60;;;4.47;;
19347;SDS011;9810;52.480;9.806;2022-12-20T10:58:38;13.37;;;4.50;;
19347;SDS011;9810;52.480;9.806;2022-12-20T11:01:10;6.93;;;4.87;;
19347;SDS011;9810;52.480;9.806;2022-12-20T11:03:50;6.37;;;4.03;;
19347;SDS011;9810;52.480;9.806;2022-12-20T11:06:22;8.43;;;4.53;;
19347;SDS011;9810;52.480;9.806;2022-12-20T11:08:50;7.33;;;4.40;;
19347;SDS011;9810;52.480;9.806;2022-12-20T11:11:19;9.13;;;4.50;;
19347;SDS011;9810;52.480;9.806;2022-12-20T11:13:49;6.80;;;4.27;;
19347;SDS011;9810;52.480;9.806;2022-12-20T11:16:23;6.87;;;4.83;;
19347;SDS011;9810;52.480;9.806;2022-12-20T11:18:57;6.10;;;4.10;;
19347;SDS011;9810;52.480;9.806;2022-12-20T11:21:40;9.00;;;4.87;;
19347;SDS011;9810;52.480;9.806;2022-12-20T11:24:13;8.13;;;4.87;;
19347;SDS011;9810;52.480;9.806;2022-12-20T11:26:54;8.90;;;5.23;;
19347;SDS011;9810;52.480;9.806;2022-12-20T11:29:40;6.03;;;3.67;;
19347;SDS011;9810;52.480;9.806;2022-12-20T11:32:31;9.70;;;4.90;;
19347;SDS011;9810;52.480;9.806;2022-12-20T11:35:09;6.07;;;3.90;;
19347;SDS011;9810;52.480;9.806;2022-12-20T11:37:44;8.53;;;4.63;;
19347;SDS011;9810;52.480;9.806;2022-12-20T11:40:17;5.87;;;4.03;;
19347;SDS011;9810;52.480;9.806;2022-12-20T11:45:54;4.93;;;3.87;;
19347;SDS011;9810;52.480;9.806;2022-12-20T11:49:05;9.13;;;3.90;;
19347;SDS011;9810;52.480;9.806;2022-12-20T11:51:44;4.93;;;3.47;;
19347;SDS011;9810;52.480;9.806;2022-12-20T11:54:16;6.33;;;3.93;;
19347;SDS011;9810;52.480;9.806;2022-12-20T11:56:49;5.37;;;4.10;;
19347;SDS011;9810;52.480;9.806;2022-12-20T11:59:21;8.47;;;3.70;;
19347;SDS011;9810;52.480;9.806;2022-12-20T12:02:03;7.07;;;4.20;;
19347;SDS011;9810;52.480;9.806;2022-12-20T12:04:38;6.63;;;3.93;;
19347;SDS011;9810;52.480;9.806;2022-12-20T12:07:09;6.23;;;3.60;;
19347;SDS011;9810;52.480;9.806;2022-12-20T12:09:44;8.57;;;3.97;;
19347;SDS011;9810;52.480;9.806;2022-12-20T12:12:20;6.40;;;3.93;;
19347;SDS011;9810;52.480;9.806;2022-12-20T12:14:52;7.57;;;3.33;;
19347;SDS011;9810;52.480;9.806;2022-12-20T12:17:26;9.33;;;4.80;;
19347;SDS011;9810;52.480;9.806;2022-12-20T12:19:59;6.93;;;4.40;;
19347;SDS011;9810;52.480;9.806;2022-12-20T12:22:40;8.13;;;3.70;;
19347;SDS011;9810;52.480;9.806;2022-12-20T12:25:12;6.17;;;4.10;;
19347;SDS011;9810;52.480;9.806;2022-12-20T12:27:43;6.87;;;3.73;;
19347;SDS011;9810;52.480;9.806;2022-12-20T12:30:11;6.17;;;3.87;;
19347;SDS011;9810;52.480;9.806;2022-12-20T12:32:40;6.37;;;3.93;;
19347;SDS011;9810;52.480;9.806;2022-12-20T12:35:18;5.73;;;3.50;;
19347;SDS011;9810;52.480;9.806;2022-12-20T12:38:14;8.53;;;3.20;;
19347;SDS011;9810;52.480;9.806;2022-12-20T12:41:08;6.07;;;3.33;;
19347;SDS011;9810;52.480;9.806;2022-12-20T12:43:49;11.23;;;3.23;;
19347;SDS011;9810;52.480;9.806;2022-12-20T12:46:21;5.60;;;3.07;;
19347;SDS011;9810;52.480;9.806;2022-12-20T12:48:53;7.47;;;3.33;;
19347;SDS011;9810;52.480;9.806;2022-12-20T12:51:28;6.30;;;2.97;;
19347;SDS011;9810;52.480;9.806;2022-12-20T12:54:03;6.27;;;3.17;;
19347;SDS011;9810;52.480;9.806;2022-12-20T12:56:45;5.30;;;3.13;;
19347;SDS011;9810;52.480;9.806;2022-12-20T12:59:21;7.10;;;3.20;;
19347;SDS011;9810;52.480;9.806;2022-12-20T13:02:26;7.77;;;2.90;;
19347;SDS011;9810;52.480;9.806;2022-12-20T13:05:00;6.53;;;3.27;;
19347;SDS011;9810;52.480;9.806;2022-12-20T13:07:43;5.77;;;3.30;;
19347;SDS011;9810;52.480;9.806;2022-12-20T13:13:33;3.80;;;2.80;;
19347;SDS011;9810;52.480;9.806;2022-12-20T13:16:04;5.87;;;2.97;;
19347;SDS011;9810;52.480;9.806;2022-12-20T13:18:36;3.83;;;2.67;;
19347;SDS011;9810;52.480;9.806;2022-12-20T13:21:17;5.47;;;2.70;;
19347;SDS011;9810;52.480;9.806;2022-12-20T13:27:11;2.93;;;2.43;;
19347;SDS011;9810;52.480;9.806;2022-12-20T13:29:53;5.97;;;3.20;;
19347;SDS011;9810;52.480;9.806;2022-12-20T13:35:30;5.33;;;3.80;;
19347;SDS011;9810;52.480;9.806;2022-12-20T13:41:08;8.30;;;3.77;;
19347;SDS011;9810;52.480;9.806;2022-12-20T13:43:43;6.50;;;3.40;;
19347;SDS011;9810;52.480;9.806;2022-12-20T13:46:17;4.87;;;3.20;;
19347;SDS011;9810;52.480;9.806;2022-12-20T13:48:49;5.90;;;3.53;;
19347;SDS011;9810;52.480;9.806;2022-12-20T13:51:19;6.43;;;4.60;;
19347;SDS011;9810;52.480;9.806;2022-12-20T13:53:50;4.87;;;3.47;;
19347;SDS011;9810;52.480;9.806;2022-12-20T13:56:20;6.63;;;3.47;;
19347;SDS011;9810;52.480;9.806;2022-12-20T13:59:03;6.00;;;3.67;;
19347;SDS011;9810;52.480;9.806;2022-12-20T14:01:34;5.80;;;3.90;;
19347;SDS011;9810;52.480;9.806;2022-12-20T14:04:02;7.13;;;3.20;;
19347;SDS011;9810;52.480;9.806;2022-12-20T14:06:31;7.67;;;3.97;;
19347;SDS011;9810;52.480;9.806;2022-12-20T14:08:58;5.53;;;3.23;;
19347;SDS011;9810;52.480;9.806;2022-12-20T14:11:27;3.60;;;3.07;;
19347;SDS011;9810;52.480;9.806;2022-12-20T14:13:55;4.80;;;3.30;;
19347;SDS011;9810;52.480;9.806;2022-12-20T14:16:24;5.60;;;2.93;;
19347;SDS011;9810;52.480;9.806;2022-12-20T14:19:00;6.90;;;3.50;;
19347;SDS011;9810;52.480;9.806;2022-12-20T14:21:28;7.87;;;3.73;;
19347;SDS011;9810;52.480;9.806;2022-12-20T14:23:57;6.23;;;3.20;;
19347;SDS011;9810;52.480;9.806;2022-12-20T14:26:26;4.80;;;3.10;;
19347;SDS011;9810;52.480;9.806;2022-12-20T14:28:55;5.83;;;3.37;;
19347;SDS011;9810;52.480;9.806;2022-12-20T14:31:24;6.50;;;3.60;;
19347;SDS011;9810;52.480;9.806;2022-12-20T14:34:04;7.90;;;3.30;;
19347;SDS011;9810;52.480;9.806;2022-12-20T14:36:32;5.53;;;3.27;;
19347;SDS011;9810;52.480;9.806;2022-12-20T14:39:00;4.10;;;2.80;;
19347;SDS011;9810;52.480;9.806;2022-12-20T14:41:53;4.93;;;3.00;;
19347;SDS011;9810;52.480;9.806;2022-12-20T14:44:23;6.83;;;3.70;;
19347;SDS011;9810;52.480;9.806;2022-12-20T14:46:51;6.90;;;3.10;;
19347;SDS011;9810;52.480;9.806;2022-12-20T14:49:22;7.70;;;3.30;;
19347;SDS011;9810;52.480;9.806;2022-12-20T14:52:04;5.40;;;3.30;;
19347;SDS011;9810;52.480;9.806;2022-12-20T14:54:32;4.30;;;3.00;;
19347;SDS011;9810;52.480;9.806;2022-12-20T14:57:01;4.83;;;2.90;;
19347;SDS011;9810;52.480;9.806;2022-12-20T14:59:29;3.17;;;2.57;;
19347;SDS011;9810;52.480;9.806;2022-12-20T15:01:57;4.77;;;2.60;;
19347;SDS011;9810;52.480;9.806;2022-12-20T15:05:01;8.90;;;3.53;;
19347;SDS011;9810;52.480;9.806;2022-12-20T15:07:33;5.57;;;3.20;;
19347;SDS011;9810;52.480;9.806;2022-12-20T15:10:01;6.10;;;2.90;;
19347;SDS011;9810;52.480;9.806;2022-12-20T15:12:28;7.70;;;2.77;;
19347;SDS011;9810;52.480;9.806;2022-12-20T15:14:55;4.43;;;2.97;;
19347;SDS011;9810;52.480;9.806;2022-12-20T15:17:23;5.43;;;3.43;;
19347;SDS011;9810;52.480;9.806;2022-12-20T15:19:50;4.33;;;3.57;;
19347;SDS011;9810;52.480;9.806;2022-12-20T15:22:19;5.77;;;2.90;;
19347;SDS011;9810;52.480;9.806;2022-12-20T15:24:46;5.77;;;3.20;;
19347;SDS011;9810;52.480;9.806;2022-12-20T15:27:14;4.77;;;3.00;;
19347;SDS011;9810;52.480;9.806;2022-12-20T15:29:42;4.67;;;3.40;;
19347;SDS011;9810;52.480;9.806;2022-12-20T15:32:13;6.20;;;3.23;;
19347;SDS011;9810;52.480;9.806;2022-12-20T15:34:47;5.20;;;2.70;;